Gainestown, Alabama
Current Conditions -  °F | °C
As of 4:53 PM on Tuesday 25 Nov 2014 (Local Time) from KGZH Reporting Station
Overcast Overcast  
Wind Chill: 56°   Ceiling: 11000
Heat Index: 56°   Visibility: 10mi
Dew Point: 35°   Wind: 6mph
Humidity: 45%   Direction: 320°NW
Pressure: 30.08"   Gusts: NA
Location:  31.44°N, 87.69°W
Report Text: KGZH 252253Z AUTO 32005KT 10SM OVC110 13/02 A3008 RMK AO2 SLP186 T01330017
Loading
Personal Weather Stations






























Interactive Weather Map New forecast layout! Learn more

10-Day Weather Forecast

Advertisements
Track Severe Weather on mobile